Westgard — PDBQ — position and weather

sailwx.info

Track history (hours):
 
Tides and Currents Weather Stations Pressure Air Temp Water Temp Dewpoint Dewpoint Depression Visibility Wind Speed Wind Dir Waves Ship Positions

Westgard

Last reported at 2017-Oct-19 18:30 UTC. Time now 2017-Oct-19 18:45 UTC.
Position N 54°56' E 014°54'.

Length 89 m; draft 5.6 m.

Type: Ship. MMSI: 246457000.

Date/timePositionNaut miles runAvg speedWind from/ knotsBaromVisibWave heightAir tempDewpointWater temp
2017-Oct-19 18:30N 54°56' E 014°54'611.2
2017-Oct-19 17:58N 54°57' E 015°05'511.2
2017-Oct-19 17:29N 54°59' E 015°13'711.2
2017-Oct-19 16:53N 55°02' E 015°24'411.3
2017-Oct-19 16:30N 55°04' E 015°31'811.3
2017-Oct-19 15:50N 55°07' E 015°42'411.3
2017-Oct-19 15:30N 55°09' E 015°48'611.2
2017-Oct-19 15:00N 55°11' E 015°57'611.1
2017-Oct-19 14:30N 55°14' E 016°06'711.1
2017-Oct-19 13:55N 55°16' E 016°16'511.3
2017-Oct-19 13:28N 55°19' E 016°24'811.0
2017-Oct-19 12:46N 55°22' E 016°36'1211.2
2017-Oct-19 11:43N 55°28' E 016°54'2011.0
2017-Oct-19 09:55N 55°36' E 017°26'  
2017-Oct-13 14:15N 56°02' E 016°43'3 9.8
2017-Oct-13 13:59N 56°01' E 016°39'5 9.6
2017-Oct-13 13:30N 55°59' E 016°32'5 9.5
2017-Oct-13 13:00N 55°57' E 016°25'5 9.4
2017-Oct-13 12:31N 55°54' E 016°18'5 9.6
2017-Oct-13 12:00N 55°52' E 016°10'4 8.8
2017-Oct-13 11:30N 55°50' E 016°03'5 9.8
2017-Oct-13 11:00N 55°48' E 015°56'5 9.9
2017-Oct-13 10:30N 55°45' E 015°48'5 9.9
2017-Oct-13 10:00N 55°43' E 015°40'16 9.7
2017-Oct-13 08:21N 55°34' E 015°16'3 9.7
2017-Oct-13 08:00N 55°33' E 015°11'5 9.6
2017-Oct-13 07:30N 55°30' E 015°03'5 9.6
2017-Oct-13 06:59N 55°28' E 014°56'6 9.6
2017-Oct-13 06:23N 55°25' E 014°47'4 9.5
2017-Oct-13 06:00N 55°23' E 014°41'5 9.2
2017-Oct-13 05:30N 55°20' E 014°36'5 9.1
2017-Oct-13 05:00N 55°16' E 014°31'5 9.2
2017-Oct-13 04:29N 55°13' E 014°25'4 9.3
2017-Oct-13 04:00N 55°09' E 014°20'5 8.9
2017-Oct-13 03:29N 55°06' E 014°15'50 9.3
2017-Oct-12 22:03N 54°45' E 012°55'0 9.9
2017-Oct-12 22:00N 54°45' E 012°55'510.2
2017-Oct-12 21:30N 54°42' E 012°47'2510.2
2017-Oct-12 19:02N 54°26' E 012°13'010.5
2017-Oct-12 19:00N 54°26' E 012°12'5 9.9
2017-Oct-12 18:30N 54°25' E 012°04'2110.8
2017-Oct-12 16:33N 54°30' E 011°29'111.5
2017-Oct-12 16:30N 54°30' E 011°28'611.4
2017-Oct-12 16:00N 54°33' E 011°20'612.1
2017-Oct-12 15:30N 54°35' E 011°10'611.5
2017-Oct-12 15:00N 54°35' E 011°00'510.3
2017-Oct-12 14:30N 54°35' E 010°51'38 6.9
2017-Oct-12 09:00N 54°22' E 009°50'4 8.2
2017-Oct-12 08:30N 54°20' E 009°44'4 7.4
2017-Oct-12 08:00N 54°17' E 009°39'2 4.9
2017-Oct-12 07:30N 54°15' E 009°37'3 5.8
2017-Oct-12 07:00N 54°13' E 009°35'4 8.5
2017-Oct-12 06:30N 54°11' E 009°28'4 8.6
2017-Oct-12 06:00N 54°09' E 009°22'4 8.0
2017-Oct-12 05:27N 54°05' E 009°19'4 8.4
2017-Oct-12 05:00N 54°01' E 009°18'4 8.0
2017-Oct-12 04:30N 53°58' E 009°15'2 3.5
2017-Oct-12 04:00N 53°56' E 009°13'3 5.7
2017-Oct-12 03:30N 53°54' E 009°10'1 1.5
2017-Oct-12 03:00N 53°54' E 009°09'1 1.6
2017-Oct-12 02:30N 53°53' E 009°07'1 1.4
2017-Oct-12 02:00N 53°53' E 009°06'2 3.3
2017-Oct-12 01:30N 53°52' E 009°04'612.7
2017-Oct-12 01:00N 53°50' E 008°54'611.4
2017-Oct-12 00:30N 53°52' E 008°44'612.0
2017-Oct-11 23:59N 53°57' E 008°38'612.6
2017-Oct-11 23:30N 53°59' E 008°28'611.7
2017-Oct-11 23:00N 53°60' E 008°18'712.5
2017-Oct-11 22:27N 53°59' E 008°07'611.7
2017-Oct-11 21:56N 53°57' E 007°57'215 9.5
2017-Oct-10 23:23N 51°45' E 003°16'3 6.7
2017-Oct-10 22:58N 51°43' E 003°17'510.1
2017-Oct-10 22:30N 51°39' E 003°21'610.7
2017-Oct-10 21:59N 51°34' E 003°25'510.4
2017-Oct-10 21:30N 51°29' E 003°29'510.6
2017-Oct-10 21:00N 51°26' E 003°36'4 9.0
2017-Oct-10 20:30N 51°25' E 003°43'612.0
2017-Oct-10 20:00N 51°20' E 003°49'0 0.7
2017-Oct-10 19:30N 51°20' E 003°49'2 3.1
2017-Oct-10 19:00N 51°18' E 003°50'2 3.8
2017-Oct-10 18:30N 51°16' E 003°51'0 0.0
2017-Oct-10 18:00N 51°16' E 003°51'0 0.0
2017-Oct-10 17:30N 51°16' E 003°51'0 0.0
2017-Oct-10 17:00N 51°16' E 003°51'0 0.0
2017-Oct-10 16:30N 51°16' E 003°51'0 0.0
2017-Oct-10 16:00N 51°16' E 003°51'0 0.0
2017-Oct-10 15:27N 51°16' E 003°51'0 0.0
2017-Oct-10 15:00N 51°16' E 003°51'0 0.0
2017-Oct-10 14:00N 51°16' E 003°51'0 0.0
2017-Oct-10 13:30N 51°16' E 003°51'0 0.0
2017-Oct-10 13:00N 51°16' E 003°51'0 0.0
2017-Oct-10 12:27N 51°16' E 003°51'0 0.0
2017-Oct-10 12:00N 51°16' E 003°51'0 0.0
2017-Oct-10 11:30N 51°16' E 003°51'0 0.0
2017-Oct-10 11:00N 51°16' E 003°51'0 0.0
2017-Oct-10 10:27N 51°16' E 003°51'0 0.0
2017-Oct-10 10:00N 51°16' E 003°51'0 0.0
2017-Oct-10 09:30N 51°16' E 003°51'0 0.0
2017-Oct-10 09:00N 51°16' E 003°51'0 0.0
2017-Oct-10 08:30N 51°16' E 003°51'0 0.0
2017-Oct-10 08:00N 51°16' E 003°51'0 0.0
2017-Oct-10 07:30N 51°16' E 003°51'0 0.0
2017-Oct-10 07:00N 51°16' E 003°51'0 0.0
2017-Oct-10 06:30N 51°16' E 003°51'0 0.0
2017-Oct-10 06:00N 51°16' E 003°51'0 0.0
2017-Oct-10 05:27N 51°16' E 003°51'0 0.0
2017-Oct-10 05:00N 51°16' E 003°51'0 0.0
2017-Oct-10 04:27N 51°16' E 003°51'0 0.0
2017-Oct-10 04:00N 51°16' E 003°51'2 4.5
2017-Oct-10 03:30N 51°18' E 003°50'1 1.5
2017-Oct-10 02:59N 51°19' E 003°49'0 0.0
2017-Oct-10 02:26N 51°19' E 003°49'0 0.0
2017-Oct-10 01:56N 51°19' E 003°49'0 0.0
2017-Oct-10 01:29N 51°19' E 003°49'0 0.0
2017-Oct-10 00:59N 51°19' E 003°49'0 0.0
2017-Oct-10 00:29N 51°19' E 003°49'0 0.0
2017-Oct-09 23:59N 51°19' E 003°49'0 0.0
2017-Oct-09 23:23N 51°19' E 003°49'0 0.0
2017-Oct-09 22:59N 51°19' E 003°49'0 0.0
2017-Oct-09 22:29N 51°19' E 003°49'0 0.0
2017-Oct-09 21:59N 51°19' E 003°49'0 0.0
2017-Oct-09 21:29N 51°19' E 003°49'0 0.0
2017-Oct-09 20:59N 51°19' E 003°49'0 0.0
2017-Oct-09 20:29N 51°19' E 003°49'0 0.0
2017-Oct-09 19:59N 51°19' E 003°49'0 0.0
2017-Oct-09 19:29N 51°19' E 003°49'0 0.0
2017-Oct-09 18:59N 51°19' E 003°49'  
Track history (hours):
 
Tides and Currents Weather Stations Pressure Air Temp Water Temp Dewpoint Dewpoint Depression Visibility Wind Speed Wind Dir Waves Ship Positions

Westgard

Last reported at 2017-Oct-19 18:30 UTC. Time now 2017-Oct-19 18:45 UTC.
Position N 54°56' E 014°54'.

Length 89 m; draft 5.6 m.

Type: Ship. MMSI: 246457000.

Date/timePositionNaut miles runAvg speedWind from/ knotsBaromVisibWave heightAir tempDewpointWater temp
2017-Oct-19 18:30N 54°56' E 014°54'611.2
2017-Oct-19 17:58N 54°57' E 015°05'511.2
2017-Oct-19 17:29N 54°59' E 015°13'711.2
2017-Oct-19 16:53N 55°02' E 015°24'411.3
2017-Oct-19 16:30N 55°04' E 015°31'811.3
2017-Oct-19 15:50N 55°07' E 015°42'411.3
2017-Oct-19 15:30N 55°09' E 015°48'611.2
2017-Oct-19 15:00N 55°11' E 015°57'611.1
2017-Oct-19 14:30N 55°14' E 016°06'711.1
2017-Oct-19 13:55N 55°16' E 016°16'511.3
2017-Oct-19 13:28N 55°19' E 016°24'811.0
2017-Oct-19 12:46N 55°22' E 016°36'1211.2
2017-Oct-19 11:43N 55°28' E 016°54'2011.0
2017-Oct-19 09:55N 55°36' E 017°26'  
2017-Oct-13 14:15N 56°02' E 016°43'3 9.8
2017-Oct-13 13:59N 56°01' E 016°39'5 9.6
2017-Oct-13 13:30N 55°59' E 016°32'5 9.5
2017-Oct-13 13:00N 55°57' E 016°25'5 9.4
2017-Oct-13 12:31N 55°54' E 016°18'5 9.6
2017-Oct-13 12:00N 55°52' E 016°10'4 8.8
2017-Oct-13 11:30N 55°50' E 016°03'5 9.8
2017-Oct-13 11:00N 55°48' E 015°56'5 9.9
2017-Oct-13 10:30N 55°45' E 015°48'5 9.9
2017-Oct-13 10:00N 55°43' E 015°40'16 9.7
2017-Oct-13 08:21N 55°34' E 015°16'3 9.7
2017-Oct-13 08:00N 55°33' E 015°11'5 9.6
2017-Oct-13 07:30N 55°30' E 015°03'5 9.6
2017-Oct-13 06:59N 55°28' E 014°56'6 9.6
2017-Oct-13 06:23N 55°25' E 014°47'4 9.5
2017-Oct-13 06:00N 55°23' E 014°41'5 9.2
2017-Oct-13 05:30N 55°20' E 014°36'5 9.1
2017-Oct-13 05:00N 55°16' E 014°31'5 9.2
2017-Oct-13 04:29N 55°13' E 014°25'4 9.3
2017-Oct-13 04:00N 55°09' E 014°20'5 8.9
2017-Oct-13 03:29N 55°06' E 014°15'50 9.3
2017-Oct-12 22:03N 54°45' E 012°55'0 9.9
2017-Oct-12 22:00N 54°45' E 012°55'510.2
2017-Oct-12 21:30N 54°42' E 012°47'2510.2
2017-Oct-12 19:02N 54°26' E 012°13'010.5
2017-Oct-12 19:00N 54°26' E 012°12'5 9.9
2017-Oct-12 18:30N 54°25' E 012°04'2110.8
2017-Oct-12 16:33N 54°30' E 011°29'111.5
2017-Oct-12 16:30N 54°30' E 011°28'611.4
2017-Oct-12 16:00N 54°33' E 011°20'612.1
2017-Oct-12 15:30N 54°35' E 011°10'611.5
2017-Oct-12 15:00N 54°35' E 011°00'510.3
2017-Oct-12 14:30N 54°35' E 010°51'38 6.9
2017-Oct-12 09:00N 54°22' E 009°50'4 8.2
2017-Oct-12 08:30N 54°20' E 009°44'4 7.4
2017-Oct-12 08:00N 54°17' E 009°39'2 4.9
2017-Oct-12 07:30N 54°15' E 009°37'3 5.8
2017-Oct-12 07:00N 54°13' E 009°35'4 8.5
2017-Oct-12 06:30N 54°11' E 009°28'4 8.6
2017-Oct-12 06:00N 54°09' E 009°22'4 8.0
2017-Oct-12 05:27N 54°05' E 009°19'4 8.4
2017-Oct-12 05:00N 54°01' E 009°18'4 8.0
2017-Oct-12 04:30N 53°58' E 009°15'2 3.5
2017-Oct-12 04:00N 53°56' E 009°13'3 5.7
2017-Oct-12 03:30N 53°54' E 009°10'1 1.5
2017-Oct-12 03:00N 53°54' E 009°09'1 1.6
2017-Oct-12 02:30N 53°53' E 009°07'1 1.4
2017-Oct-12 02:00N 53°53' E 009°06'2 3.3
2017-Oct-12 01:30N 53°52' E 009°04'612.7
2017-Oct-12 01:00N 53°50' E 008°54'611.4
2017-Oct-12 00:30N 53°52' E 008°44'612.0
2017-Oct-11 23:59N 53°57' E 008°38'612.6
2017-Oct-11 23:30N 53°59' E 008°28'611.7
2017-Oct-11 23:00N 53°60' E 008°18'712.5
2017-Oct-11 22:27N 53°59' E 008°07'611.7
2017-Oct-11 21:56N 53°57' E 007°57'215 9.5
2017-Oct-10 23:23N 51°45' E 003°16'3 6.7
2017-Oct-10 22:58N 51°43' E 003°17'510.1
2017-Oct-10 22:30N 51°39' E 003°21'610.7
2017-Oct-10 21:59N 51°34' E 003°25'510.4
2017-Oct-10 21:30N 51°29' E 003°29'510.6
2017-Oct-10 21:00N 51°26' E 003°36'4 9.0
2017-Oct-10 20:30N 51°25' E 003°43'612.0
2017-Oct-10 20:00N 51°20' E 003°49'0 0.7
2017-Oct-10 19:30N 51°20' E 003°49'2 3.1
2017-Oct-10 19:00N 51°18' E 003°50'2 3.8
2017-Oct-10 18:30N 51°16' E 003°51'0 0.0
2017-Oct-10 18:00N 51°16' E 003°51'0 0.0
2017-Oct-10 17:30N 51°16' E 003°51'0 0.0
2017-Oct-10 17:00N 51°16' E 003°51'0 0.0
2017-Oct-10 16:30N 51°16' E 003°51'0 0.0
2017-Oct-10 16:00N 51°16' E 003°51'0 0.0
2017-Oct-10 15:27N 51°16' E 003°51'0 0.0
2017-Oct-10 15:00N 51°16' E 003°51'0 0.0
2017-Oct-10 14:00N 51°16' E 003°51'0 0.0
2017-Oct-10 13:30N 51°16' E 003°51'0 0.0
2017-Oct-10 13:00N 51°16' E 003°51'0 0.0
2017-Oct-10 12:27N 51°16' E 003°51'0 0.0
2017-Oct-10 12:00N 51°16' E 003°51'0 0.0
2017-Oct-10 11:30N 51°16' E 003°51'0 0.0
2017-Oct-10 11:00N 51°16' E 003°51'0 0.0
2017-Oct-10 10:27N 51°16' E 003°51'0 0.0
2017-Oct-10 10:00N 51°16' E 003°51'0 0.0
2017-Oct-10 09:30N 51°16' E 003°51'0 0.0
2017-Oct-10 09:00N 51°16' E 003°51'0 0.0
2017-Oct-10 08:30N 51°16' E 003°51'0 0.0
2017-Oct-10 08:00N 51°16' E 003°51'0 0.0
2017-Oct-10 07:30N 51°16' E 003°51'0 0.0
2017-Oct-10 07:00N 51°16' E 003°51'0 0.0
2017-Oct-10 06:30N 51°16' E 003°51'0 0.0
2017-Oct-10 06:00N 51°16' E 003°51'0 0.0
2017-Oct-10 05:27N 51°16' E 003°51'0 0.0
2017-Oct-10 05:00N 51°16' E 003°51'0 0.0
2017-Oct-10 04:27N 51°16' E 003°51'0 0.0
2017-Oct-10 04:00N 51°16' E 003°51'2 4.5
2017-Oct-10 03:30N 51°18' E 003°50'1 1.5
2017-Oct-10 02:59N 51°19' E 003°49'0 0.0
2017-Oct-10 02:26N 51°19' E 003°49'0 0.0
2017-Oct-10 01:56N 51°19' E 003°49'0 0.0
2017-Oct-10 01:29N 51°19' E 003°49'0 0.0
2017-Oct-10 00:59N 51°19' E 003°49'0 0.0
2017-Oct-10 00:29N 51°19' E 003°49'0 0.0
2017-Oct-09 23:59N 51°19' E 003°49'0 0.0
2017-Oct-09 23:23N 51°19' E 003°49'0 0.0
2017-Oct-09 22:59N 51°19' E 003°49'0 0.0
2017-Oct-09 22:29N 51°19' E 003°49'0 0.0
2017-Oct-09 21:59N 51°19' E 003°49'0 0.0
2017-Oct-09 21:29N 51°19' E 003°49'0 0.0
2017-Oct-09 20:59N 51°19' E 003°49'0 0.0
2017-Oct-09 20:29N 51°19' E 003°49'0 0.0
2017-Oct-09 19:59N 51°19' E 003°49'0 0.0
2017-Oct-09 19:29N 51°19' E 003°49'0 0.0
2017-Oct-09 18:59N 51°19' E 003°49'  

Dump ship's entire track history